Star Life — 5BEH3 — position and weather

sailwx.info

Track history (hours):
 
Tides and Currents Weather Stations Pressure Air Temp Water Temp Dewpoint Dewpoint Depression Visibility Wind Speed Wind Dir Waves Ship Positions

Star Life

Last reported at 2017-Sep-20 17:39 UTC. Time now 2017-Sep-21 03:06 UTC.
Position S 33°06' E 152°35'.

Length 169 m; draft 9.5 m.

Type: Cargo ship. MMSI: 209257000.

Date/timePositionNaut miles runAvg speedWind from/ knotsBaromVisibWave heightAir tempDewpointWater temp
2017-Sep-20 17:39S 33°06' E 152°35'612.7
2017-Sep-20 17:12S 33°01' E 152°36'312.4
2017-Sep-20 16:58S 32°58' E 152°36'612.2
2017-Sep-20 16:30S 32°52' E 152°38'712.6
2017-Sep-20 15:57S 32°45' E 152°39'512.4
2017-Sep-20 15:31S 32°40' E 152°40'712.3
2017-Sep-20 14:57S 32°33' E 152°42'24812.7
2017-Sep-19 19:24S 28°32' E 153°49'712.5
2017-Sep-19 18:50S 28°25' E 153°47'412.3
2017-Sep-19 18:30S 28°21' E 153°46'612.2
2017-Sep-19 18:00S 28°15' E 153°45'611.8
2017-Sep-19 17:30S 28°09' E 153°45'611.5
2017-Sep-19 17:00S 28°04' E 153°44'611.5
2017-Sep-19 16:30S 27°58' E 153°44'611.8
2017-Sep-19 16:00S 27°52' E 153°43'612.2
2017-Sep-19 15:30S 27°46' E 153°42'612.1
2017-Sep-19 15:00S 27°40' E 153°41'612.3
2017-Sep-19 14:30S 27°34' E 153°41'612.3
2017-Sep-19 14:00S 27°28' E 153°41'712.3
2017-Sep-19 13:28S 27°21' E 153°41'612.4
2017-Sep-19 12:59S 27°15' E 153°39'712.3
2017-Sep-19 12:25S 27°09' E 153°38'512.4
2017-Sep-19 12:00S 27°03' E 153°38'2112.0
2017-Sep-19 10:18S 26°43' E 153°43'712.3
2017-Sep-19 09:44S 26°37' E 153°46'312.4
2017-Sep-19 09:30S 26°34' E 153°47'  
Track history (hours):
 
Tides and Currents Weather Stations Pressure Air Temp Water Temp Dewpoint Dewpoint Depression Visibility Wind Speed Wind Dir Waves Ship Positions

Star Life

Last reported at 2017-Sep-20 17:39 UTC. Time now 2017-Sep-21 03:06 UTC.
Position S 33°06' E 152°35'.

Length 169 m; draft 9.5 m.

Type: Cargo ship. MMSI: 209257000.

Date/timePositionNaut miles runAvg speedWind from/ knotsBaromVisibWave heightAir tempDewpointWater temp
2017-Sep-20 17:39S 33°06' E 152°35'612.7
2017-Sep-20 17:12S 33°01' E 152°36'312.4
2017-Sep-20 16:58S 32°58' E 152°36'612.2
2017-Sep-20 16:30S 32°52' E 152°38'712.6
2017-Sep-20 15:57S 32°45' E 152°39'512.4
2017-Sep-20 15:31S 32°40' E 152°40'712.3
2017-Sep-20 14:57S 32°33' E 152°42'24812.7
2017-Sep-19 19:24S 28°32' E 153°49'712.5
2017-Sep-19 18:50S 28°25' E 153°47'412.3
2017-Sep-19 18:30S 28°21' E 153°46'612.2
2017-Sep-19 18:00S 28°15' E 153°45'611.8
2017-Sep-19 17:30S 28°09' E 153°45'611.5
2017-Sep-19 17:00S 28°04' E 153°44'611.5
2017-Sep-19 16:30S 27°58' E 153°44'611.8
2017-Sep-19 16:00S 27°52' E 153°43'612.2
2017-Sep-19 15:30S 27°46' E 153°42'612.1
2017-Sep-19 15:00S 27°40' E 153°41'612.3
2017-Sep-19 14:30S 27°34' E 153°41'612.3
2017-Sep-19 14:00S 27°28' E 153°41'712.3
2017-Sep-19 13:28S 27°21' E 153°41'612.4
2017-Sep-19 12:59S 27°15' E 153°39'712.3
2017-Sep-19 12:25S 27°09' E 153°38'512.4
2017-Sep-19 12:00S 27°03' E 153°38'2112.0
2017-Sep-19 10:18S 26°43' E 153°43'712.3
2017-Sep-19 09:44S 26°37' E 153°46'312.4
2017-Sep-19 09:30S 26°34' E 153°47'  

Dump ship's entire track history